Sand Key, FL current weather conditions

sailwx.info

Wind from 110 at 13 knots gusting 16

Air temperature 24.1° C
Dewpoint 20.7° C

Last reported at 2015-Mar-04 11:50 UTC.
Time now 2015-Mar-04 12:54 UTC

Location: N 24°28' W 081°53'.
View on Google Maps.

See reports from other nearby stations

  
Tides and Currents Weather Stations Pressure Air Temp Water Temp Dewpoint Dewpoint Depression Visibility Wind Speed Wind Dir Waves Ship Positions
date/time (UTC)wind fromknots sea level pressurealtimeterstation pressurevisibilityair tempwater tempwave heightnotes
2015-Mar-04 11:50 110 13 gusting 16 24.1
2015-Mar-04 10:50 120 13 gusting 15 24.0
2015-Mar-04 09:50 120 16 gusting 18 24.0
2015-Mar-04 08:50 120 19 gusting 22 24.0
2015-Mar-04 05:50 120 15 gusting 18 24.0
2015-Mar-04 04:50 110 16 gusting 19 24.1
2015-Mar-04 03:50 110 17 gusting 19 24.2
2015-Mar-04 02:50 100 17 gusting 19 24.1
2015-Mar-04 01:50 090 17 gusting 19 24.1
2015-Mar-04 00:50 100 16 gusting 19 24.1
2015-Mar-03 22:50 100 15 gusting 17 24.1
2015-Mar-03 21:50 110 16 gusting 18 24.0
2015-Mar-03 20:50 110 14 gusting 17 24.2
2015-Mar-03 19:50 100 14 gusting 16 24.2
2015-Mar-03 17:50 100 14 gusting 16 24.1
2015-Mar-03 16:50 090 14 gusting 17 24.0
2015-Mar-03 15:50 090 15 gusting 17 24.0
2015-Mar-03 14:50 090 16 gusting 18 23.9
2015-Mar-03 13:50 090 16 gusting 19 23.9
2015-Mar-03 12:50 090 16 gusting 19 23.8
2015-Mar-03 11:50 090 16 gusting 18 23.7
2015-Mar-03 10:50 070 16 gusting 18 23.5
2015-Mar-03 09:50 080 18 gusting 19 23.5
2015-Mar-03 08:50 080 18 gusting 20 23.4
2015-Mar-03 07:50 080 19 gusting 20 23.4
2015-Mar-03 06:50 070 16 gusting 19 23.6
2015-Mar-03 05:50 070 16 gusting 19 23.6
2015-Mar-03 04:50 080 16 gusting 18 23.5
2015-Mar-03 03:50 070 16 gusting 18 23.6
2015-Mar-03 02:50 080 17 gusting 19 23.6
2015-Mar-03 01:50 080 16 gusting 18 23.6
2015-Mar-03 00:50 080 14 gusting 15 23.6
2015-Mar-02 22:50 080 12 gusting 14 23.9
2015-Mar-02 21:50 090 18 gusting 22 24.2
2015-Mar-02 20:50 090 13 gusting 14 24.0
2015-Mar-02 19:50 090 12 gusting 14 24.0
2015-Mar-02 18:50 080 12 gusting 14 23.8
2015-Mar-02 17:50 080 13 gusting 15 23.7
2015-Mar-02 16:50 070 13 gusting 16 23.7
2015-Mar-02 15:50 080 14 gusting 16 23.7
2015-Mar-02 14:50 080 14 gusting 17 23.7
2015-Mar-02 13:50 080 13 gusting 15 23.7